Moorhead, Minnesota
Current Conditions -  °F | °C
As of 5:53 PM on Wednesday 22 Oct 2014 (Local Time) from KFAR Reporting Station
Light Rain Light Rain  
Wind Chill: 57°   Ceiling: 4100
Heat Index: 57°   Visibility: 9mi
Dew Point: 54°   Wind: 5mph
Humidity: 89%   Direction: 220°SW
Pressure: 29.85"   Gusts: NA
Location:  46.88°N, 96.77°W
Report Text: KFAR 222253Z 22004KT 9SM -RA BKN041 BKN065 OVC075 14/12 A2985 RMK AO2 RAB2155 SLP109 P0004 T01390122
Loading
Personal Weather Stations






























Interactive Weather Map
Tropical Storm Tracking
New forecast layout! Learn more

10-Day Weather Forecast

Advertisements
Track Severe Weather on mobile